Fort Knox, Kentucky
Current Conditions -  °F | °C
As of 1:58 AM on Friday 31 Oct 2014 (Local Time) from KFTK Reporting Station
Overcast Overcast  
Wind Chill: 44°   Ceiling: 7500
Heat Index: 44°   Visibility: 10mi
Dew Point: 39°   Wind: 2mph
Humidity: 84%   Direction: 360°N
Pressure: 30.02"   Gusts: NA
Location:  37.88°N, 85.96°W
Report Text: KFTK 310558Z AUTO 36002KT 10SM BKN075 OVC095 07/04 A3002 RMK AO2 SLP170 T00660041 10097 20061 56007
Loading
Personal Weather Stations






























Interactive Weather Map
Tropical Storm Tracking
New forecast layout! Learn more

10-Day Weather Forecast

Advertisements
Track Severe Weather on mobile